Time;durP1;ratioP1;P1;durP2;ratioP2;P2;SDS_P1;SDS_P2;PMS_P1;PMS_P2;Temp;Humidity;BMP_temperature;BMP_pressure;BME280_temperature;BME280_humidity;BME280_pressure;Samples;Min_cycle;Max_cycle;Signal;HPM_P1;HPM_P2
2023/03/07 00:00:35;;;;;;;;;;;;;;;1.05;82.73;92704.09;5031164;28;19963;-38
2023/03/07 00:03:00;;;;;;;;;;;;;;;0.99;83.40;92697.22;5031672;28;20030;-38
2023/03/07 00:05:25;;;;;;;;;;;;;;;1.09;83.37;92698.38;5031576;28;20005;-38
2023/03/07 00:07:50;;;;;;;;;;;;;;;1.13;82.89;92698.84;5031377;28;20000;-38
2023/03/07 00:10:16;;;;;;;;;;;;;;;1.34;81.59;92697.91;5031334;28;19931;-38
2023/03/07 00:12:41;;;;;;;;;;;;;;;1.30;81.38;92697.47;5031472;28;20581;-38
2023/03/07 00:15:07;;;;;;;;;;;;;;;1.17;82.86;92688.44;5031405;28;20022;-38
2023/03/07 00:17:35;;;;;;;;;;;;;;;1.11;83.12;92680.31;5030980;28;19991;-38
2023/03/07 00:20:01;;;;;;;;;;;;;;;1.15;83.04;92672.63;5031227;28;19933;-38
2023/03/07 00:22:26;;;;;;;;;;;;;;;1.16;83.54;92660.53;5030716;28;20427;-38
2023/03/07 00:24:52;;;;;;;;;;;;;;;1.17;83.98;92656.53;5030862;28;19932;-38
2023/03/07 00:27:17;;;;;;;;;;;;;;;1.17;84.01;92653.09;5030675;28;19931;-38
2023/03/07 00:29:42;;;;;;;;;;;;;;;1.08;83.17;92653.44;5031000;28;19932;-38
2023/03/07 00:32:08;;;;;;;;;;;;;;;1.22;85.98;92642.16;5030289;28;20425;-38
2023/03/07 00:34:33;;;;;;;;;;;;;;;1.42;85.18;92652.63;5047737;28;19989;-38
2023/03/07 00:36:58;;;;;;;;;;;;;;;1.67;85.92;92650.63;5050429;28;19933;-38
2023/03/07 00:39:23;;;;;;;;;;;;;;;1.89;84.65;92655.09;5050673;28;19936;-38
2023/03/07 00:41:49;;;;;;;;;;;;;;;2.05;85.49;92662.34;5050315;28;20415;-38
2023/03/07 00:44:14;;;;;;;;;;;;;;;2.14;84.42;92664.72;5050539;28;20164;-38
2023/03/07 00:46:39;;;;;;;;;;;;;;;2.21;83.77;92658.66;5050328;28;19985;-38
2023/03/07 00:49:04;;;;;;;;;;;;;;;2.32;83.12;92657.81;5050282;28;20033;-38
2023/03/07 00:51:30;;;;;;;;;;;;;;;2.31;83.17;92659.78;5050193;28;19955;-38
2023/03/07 00:53:55;;;;;;;;;;;;;;;2.20;84.13;92657.22;5050112;28;20457;-38
2023/03/07 00:56:21;;;;;;;;;;;;;;;2.24;83.05;92657.66;5042089;28;19977;-38
2023/03/07 00:58:47;;;;;;;;;;;;;;;2.26;83.98;92649.69;5030366;28;19931;-38
2023/03/07 01:01:13;;;;;;;;;;;;;;;2.43;84.08;92642.03;5010591;28;19965;-38
2023/03/07 01:03:38;;;;;;;;;;;;;;;2.55;83.47;92642.63;5010539;28;19932;-38
2023/03/07 01:06:08;;;;;;;;;;;;;;;2.58;83.38;92650.50;5010483;28;19960;-38
2023/03/07 01:08:33;;;;;;;;;;;;;;;2.51;82.80;92642.94;5010089;28;19939;-38
2023/03/07 01:10:59;;;;;;;;;;;;;;;2.59;82.19;92643.06;5009917;28;19954;-38
2023/03/07 01:13:24;;;;;;;;;;;;;;;2.74;82.12;92649.53;5010030;28;19982;-38
2023/03/07 01:15:49;;;;;;;;;;;;;;;2.66;82.22;92637.03;5010315;28;19972;-38
2023/03/07 01:18:15;;;;;;;;;;;;;;;2.68;81.82;92642.69;5010273;28;19964;-38
2023/03/07 01:20:40;;;;;;;;;;;;;;;2.74;82.09;92641.38;5009818;28;19998;-38
2023/03/07 01:23:05;;;;;;;;;;;;;;;2.84;81.54;92628.81;5009952;28;19937;-38
2023/03/07 01:25:31;;;;;;;;;;;;;;;2.95;81.42;92620.47;5009878;28;19943;-38
2023/03/07 01:27:56;;;;;;;;;;;;;;;2.96;80.86;92621.22;5009843;28;19935;-38
2023/03/07 01:30:22;;;;;;;;;;;;;;;2.97;80.87;92628.13;5010015;28;19947;-38
2023/03/07 01:32:52;;;;;;;;;;;;;;;2.87;82.05;92616.88;5012224;28;19933;-38
2023/03/07 01:35:18;;;;;;;;;;;;;;;2.92;80.92;92615.34;5029734;28;20308;-38
2023/03/07 01:37:43;;;;;;;;;;;;;;;2.95;81.57;92620.47;5029742;28;19913;-38
2023/03/07 01:40:09;;;;;;;;;;;;;;;2.97;80.57;92607.06;5029621;28;19936;-38
2023/03/07 01:42:34;;;;;;;;;;;;;;;3.00;80.91;92603.28;5029268;28;19917;-38
2023/03/07 01:44:59;;;;;;;;;;;;;;;2.92;81.30;92602.41;5029552;28;19924;-38
2023/03/07 01:47:24;;;;;;;;;;;;;;;2.93;81.25;92595.72;5028674;28;19917;-38
2023/03/07 01:49:50;;;;;;;;;;;;;;;2.79;81.65;92605.13;5029306;28;19921;-38
2023/03/07 01:52:35;;;;;;;;;;;;;;;2.77;82.48;92610.34;5044861;28;20006;-38
2023/03/07 01:55:26;;;;;;;;;;;;;;;2.89;81.54;92606.19;5044735;28;20305;-39
2023/03/07 01:57:52;;;;;;;;;;;;;;;2.86;81.86;92603.75;4992344;28;19953;-38
2023/03/07 02:00:24;;;;;;;;;;;;;;;2.90;82.18;92587.84;5033542;28;19964;-38
2023/03/07 02:02:50;;;;;;;;;;;;;;;2.82;81.82;92595.91;5009762;28;19913;-38
2023/03/07 02:05:24;;;;;;;;;;;;;;;2.87;81.93;92595.09;5041487;28;19992;-38
2023/03/07 02:07:49;;;;;;;;;;;;;;;3.07;80.66;92594.47;5040940;28;19952;-38
2023/03/07 02:10:17;;;;;;;;;;;;;;;3.11;80.46;92596.19;5015093;28;19957;-38
2023/03/07 02:12:42;;;;;;;;;;;;;;;3.13;80.42;92599.88;5028936;28;19983;-38
2023/03/07 02:15:08;;;;;;;;;;;;;;;3.12;80.57;92601.09;5044223;28;19917;-38
2023/03/07 02:17:33;;;;;;;;;;;;;;;3.07;81.06;92594.47;5028981;28;20664;-38
2023/03/07 02:19:59;;;;;;;;;;;;;;;3.12;81.16;92589.47;5044591;28;19956;-38
2023/03/07 02:22:24;;;;;;;;;;;;;;;3.04;81.33;92595.53;5028839;28;20553;-38
2023/03/07 02:25:05;;;;;;;;;;;;;;;3.04;81.59;92583.91;5044259;28;19934;-38
2023/03/07 02:27:30;;;;;;;;;;;;;;;3.03;82.25;92596.78;5044110;28;19973;-38
2023/03/07 02:29:55;;;;;;;;;;;;;;;2.84;81.35;92589.91;5044125;28;20006;-38
2023/03/07 02:32:21;;;;;;;;;;;;;;;2.83;81.58;92600.09;5028519;28;19980;-38
2023/03/07 02:34:46;;;;;;;;;;;;;;;2.90;81.44;92609.66;5047748;28;19983;-38
2023/03/07 02:37:12;;;;;;;;;;;;;;;2.98;80.97;92600.34;5048633;28;20415;-38
2023/03/07 02:39:38;;;;;;;;;;;;;;;2.92;81.09;92615.34;5064492;28;19936;-38
2023/03/07 02:42:06;;;;;;;;;;;;;;;2.82;82.31;92601.34;5064089;28;19933;-38
2023/03/07 02:44:31;;;;;;;;;;;;;;;2.77;82.88;92612.34;5048819;28;19933;-39
2023/03/07 02:46:57;;;;;;;;;;;;;;;2.71;82.68;92606.97;5048368;28;20335;-38
2023/03/07 02:49:22;;;;;;;;;;;;;;;2.80;81.74;92606.59;5048952;28;19996;-38
2023/03/07 02:51:47;;;;;;;;;;;;;;;2.78;81.87;92605.63;5048672;28;19951;-38
2023/03/07 02:54:13;;;;;;;;;;;;;;;2.78;82.32;92594.72;5048716;28;19965;-38
2023/03/07 02:56:38;;;;;;;;;;;;;;;2.85;81.76;92586.69;5038269;28;20038;-38
2023/03/07 02:59:03;;;;;;;;;;;;;;;2.95;81.51;92578.84;5029363;28;20089;-38
2023/03/07 03:01:29;;;;;;;;;;;;;;;3.01;81.62;92588.41;5032668;28;19933;-38
2023/03/07 03:03:54;;;;;;;;;;;;;;;3.11;80.44;92579.81;5047689;28;19951;-38
2023/03/07 03:06:20;;;;;;;;;;;;;;;3.11;81.24;92575.09;5032305;28;19974;-38
2023/03/07 03:08:45;;;;;;;;;;;;;;;3.13;80.65;92580.78;5032580;28;19936;-39
2023/03/07 03:11:10;;;;;;;;;;;;;;;3.12;80.73;92584.75;5032078;28;20347;-38
2023/03/07 03:13:36;;;;;;;;;;;;;;;3.12;80.87;92581.31;5032463;28;20050;-38
2023/03/07 03:16:01;;;;;;;;;;;;;;;3.07;81.10;92589.03;5032023;28;19935;-38
2023/03/07 03:18:26;;;;;;;;;;;;;;;3.08;81.17;92590.50;5032300;28;19978;-38
2023/03/07 03:20:52;;;;;;;;;;;;;;;3.06;81.92;92603.19;5032173;28;19940;-38
2023/03/07 03:23:17;;;;;;;;;;;;;;;2.88;82.12;92604.00;5032141;28;19997;-38
2023/03/07 03:25:42;;;;;;;;;;;;;;;2.89;82.56;92605.47;5032155;28;19949;-38
2023/03/07 03:28:07;;;;;;;;;;;;;;;2.78;82.58;92611.81;5031852;28;19943;-38
2023/03/07 03:30:34;;;;;;;;;;;;;;;2.86;83.27;92615.41;5031640;28;19953;-38
2023/03/07 03:33:00;;;;;;;;;;;;;;;2.85;83.13;92611.22;5031508;28;19941;-38
2023/03/07 03:35:25;;;;;;;;;;;;;;;2.89;84.35;92614.38;5031980;28;19994;-38
2023/03/07 03:37:51;;;;;;;;;;;;;;;2.94;83.88;92604.63;5031563;28;20490;-38
2023/03/07 03:40:16;;;;;;;;;;;;;;;3.07;82.68;92610.13;5031847;28;19936;-38
2023/03/07 03:42:42;;;;;;;;;;;;;;;3.06;82.14;92606.66;5031434;28;20396;-38
2023/03/07 03:45:08;;;;;;;;;;;;;;;3.22;81.49;92606.91;5031560;28;20052;-38
2023/03/07 03:47:34;;;;;;;;;;;;;;;3.19;81.46;92597.78;5031244;28;19936;-39
2023/03/07 03:49:59;;;;;;;;;;;;;;;3.14;81.88;92597.88;5031397;28;19936;-38
2023/03/07 03:52:24;;;;;;;;;;;;;;;3.26;81.77;92599.88;5031414;28;19959;-38
2023/03/07 03:54:49;;;;;;;;;;;;;;;3.31;82.02;92590.88;5037511;28;20413;-38
2023/03/07 03:57:17;;;;;;;;;;;;;;;3.26;82.57;92604.59;5035595;28;20006;-38
2023/03/07 03:59:43;;;;;;;;;;;;;;;3.34;82.07;92603.47;5030995;28;19971;-38
2023/03/07 04:02:08;;;;;;;;;;;;;;;3.20;81.82;92601.25;5031270;28;19931;-38
2023/03/07 04:04:34;;;;;;;;;;;;;;;2.99;82.96;92606.53;5031346;28;20580;-38
2023/03/07 04:06:59;;;;;;;;;;;;;;;2.92;83.55;92599.69;5030994;28;19995;-38
2023/03/07 04:09:24;;;;;;;;;;;;;;;2.83;84.27;92613.00;5031254;28;19967;-38
2023/03/07 04:11:50;;;;;;;;;;;;;;;3.10;83.33;92605.63;5030979;28;19960;-38
2023/03/07 04:14:15;;;;;;;;;;;;;;;3.11;83.50;92610.56;5031067;28;20084;-38
2023/03/07 04:16:40;;;;;;;;;;;;;;;3.25;82.44;92611.34;5031282;28;19934;-38
2023/03/07 04:19:07;;;;;;;;;;;;;;;3.30;81.57;92611.22;5031066;28;20441;-39
2023/03/07 04:21:32;;;;;;;;;;;;;;;3.32;81.92;92607.97;5030935;28;19931;-38
2023/03/07 04:23:58;;;;;;;;;;;;;;;3.29;82.71;92612.47;5031320;28;20028;-38
2023/03/07 04:26:23;;;;;;;;;;;;;;;3.35;82.72;92613.13;5031241;28;19956;-38
2023/03/07 04:28:48;;;;;;;;;;;;;;;3.32;81.98;92616.16;5031182;28;19957;-38
2023/03/07 04:31:15;;;;;;;;;;;;;;;3.41;81.28;92615.75;5030828;28;19944;-38
2023/03/07 04:33:40;;;;;;;;;;;;;;;3.35;82.30;92615.84;5040884;28;19938;-38
2023/03/07 04:36:06;;;;;;;;;;;;;;;3.21;83.02;92617.06;5051029;28;19940;-38
2023/03/07 04:38:31;;;;;;;;;;;;;;;3.12;84.21;92614.75;5050653;28;19972;-38
2023/03/07 04:40:56;;;;;;;;;;;;;;;3.06;84.61;92617.56;5050530;28;20330;-37
2023/03/07 04:43:21;;;;;;;;;;;;;;;3.01;84.06;92623.84;5050656;28;19933;-38
2023/03/07 04:45:47;;;;;;;;;;;;;;;2.90;84.45;92623.31;5050610;28;19960;-38
2023/03/07 04:48:12;;;;;;;;;;;;;;;3.08;84.09;92622.50;5050435;28;19977;-38
2023/03/07 04:50:37;;;;;;;;;;;;;;;3.07;84.19;92627.22;5050099;28;19975;-38
2023/03/07 04:53:03;;;;;;;;;;;;;;;3.13;83.60;92620.94;5050413;28;19978;-38
2023/03/07 04:55:28;;;;;;;;;;;;;;;3.34;82.55;92627.28;5049664;28;20362;-38
2023/03/07 04:57:54;;;;;;;;;;;;;;;3.08;83.81;92623.25;5030507;28;19958;-38
2023/03/07 05:00:19;;;;;;;;;;;;;;;3.27;84.19;92633.38;5029958;28;20357;-38
2023/03/07 05:02:45;;;;;;;;;;;;;;;3.35;83.99;92631.47;5030311;28;20266;-39
2023/03/07 05:05:11;;;;;;;;;;;;;;;3.37;84.06;92637.91;5030083;28;19938;-39
2023/03/07 05:07:36;;;;;;;;;;;;;;;3.42;83.08;92639.06;5030306;28;19934;-39
2023/03/07 05:10:01;;;;;;;;;;;;;;;3.22;84.03;92642.38;5029939;28;19938;-38
2023/03/07 05:12:27;;;;;;;;;;;;;;;3.06;83.90;92644.09;5030092;28;19994;-38
2023/03/07 05:14:52;;;;;;;;;;;;;;;3.27;83.58;92647.72;5029915;28;20323;-38
2023/03/07 05:17:18;;;;;;;;;;;;;;;3.41;83.37;92640.31;5029792;28;19928;-38
2023/03/07 05:19:43;;;;;;;;;;;;;;;3.33;83.96;92639.47;5029977;28;20007;-39
2023/03/07 05:22:08;;;;;;;;;;;;;;;3.39;84.09;92649.03;5028903;28;19942;-38
2023/03/07 05:24:34;;;;;;;;;;;;;;;3.49;83.39;92654.78;5029698;28;19968;-39
2023/03/07 05:26:59;;;;;;;;;;;;;;;3.55;82.98;92650.72;5029612;28;19936;-38
2023/03/07 05:29:24;;;;;;;;;;;;;;;3.73;81.96;92646.44;5029929;28;19939;-38
2023/03/07 05:31:49;;;;;;;;;;;;;;;3.81;80.02;92641.84;5029582;28;20207;-39
2023/03/07 05:34:15;;;;;;;;;;;;;;;3.75;81.43;92639.19;5044117;28;19940;-39
2023/03/07 05:36:40;;;;;;;;;;;;;;;3.81;81.83;92641.84;5049501;28;19931;-38
2023/03/07 05:39:06;;;;;;;;;;;;;;;3.83;82.52;92650.25;5049378;28;20351;-38
2023/03/07 05:41:31;;;;;;;;;;;;;;;3.84;81.94;92662.63;5049628;28;19989;-38
2023/03/07 05:43:57;;;;;;;;;;;;;;;3.94;81.66;92662.94;5049263;28;19936;-38
2023/03/07 05:46:22;;;;;;;;;;;;;;;4.03;81.32;92663.25;5049223;28;19994;-38
2023/03/07 05:48:47;;;;;;;;;;;;;;;4.14;80.67;92662.28;5049071;28;19928;-39
2023/03/07 05:51:13;;;;;;;;;;;;;;;4.24;81.25;92664.09;5049392;28;19955;-38
2023/03/07 05:53:38;;;;;;;;;;;;;;;4.19;80.99;92667.66;5049468;28;19933;-38
2023/03/07 05:56:03;;;;;;;;;;;;;;;4.30;80.49;92667.44;5042133;28;20042;-38
2023/03/07 05:58:29;;;;;;;;;;;;;;;4.35;80.70;92674.78;5049296;28;19937;-39
2023/03/07 06:00:54;;;;;;;;;;;;;;;4.31;81.14;92673.66;5049032;28;19968;-38
2023/03/07 06:03:19;;;;;;;;;;;;;;;4.30;81.33;92667.44;5049233;28;20022;-38
2023/03/07 06:05:47;;;;;;;;;;;;;;;4.36;82.26;92665.34;5049388;28;20432;-38
2023/03/07 06:08:13;;;;;;;;;;;;;;;4.58;81.34;92666.88;5048919;28;20405;-38
2023/03/07 06:10:39;;;;;;;;;;;;;;;4.67;81.36;92668.44;5048896;28;19952;-38
2023/03/07 06:13:04;;;;;;;;;;;;;;;4.72;81.15;92664.84;5049242;28;20300;-38
2023/03/07 06:15:29;;;;;;;;;;;;;;;4.89;80.64;92665.97;5049272;28;20464;-38
2023/03/07 06:17:55;;;;;;;;;;;;;;;4.85;80.91;92678.50;5048883;28;19995;-38
2023/03/07 06:20:20;;;;;;;;;;;;;;;4.82;81.02;92680.28;5030438;28;20033;-38
2023/03/07 06:22:46;;;;;;;;;;;;;;;4.83;78.89;92676.28;5029048;28;19946;-38
2023/03/07 06:25:11;;;;;;;;;;;;;;;4.69;79.26;92679.56;5028986;28;19938;-38
2023/03/07 06:27:37;;;;;;;;;;;;;;;4.72;80.90;92676.50;5029106;28;19973;-38
2023/03/07 06:30:03;;;;;;;;;;;;;;;4.86;79.30;92669.75;5029080;28;20647;-38
2023/03/07 06:32:29;;;;;;;;;;;;;;;4.74;80.44;92676.00;5028660;28;20010;-38
2023/03/07 06:34:54;;;;;;;;;;;;;;;4.77;81.75;92675.66;5012710;28;20346;-38
2023/03/07 06:37:19;;;;;;;;;;;;;;;4.86;81.28;92672.47;5013025;28;19937;-38
2023/03/07 06:39:45;;;;;;;;;;;;;;;4.87;82.45;92665.03;5012916;28;19953;-38
2023/03/07 06:42:10;;;;;;;;;;;;;;;5.03;83.20;92678.31;5013046;28;19938;-38
2023/03/07 06:44:35;;;;;;;;;;;;;;;5.17;83.22;92679.00;5013045;28;19942;-38
2023/03/07 06:47:02;;;;;;;;;;;;;;;5.38;82.54;92674.28;5013055;28;19935;-38
2023/03/07 06:49:28;;;;;;;;;;;;;;;5.40;79.56;92671.75;5012912;28;19938;-38
2023/03/07 06:51:53;;;;;;;;;;;;;;;5.15;81.33;92670.59;5021697;28;19952;-38
2023/03/07 06:54:18;;;;;;;;;;;;;;;5.18;80.96;92662.06;5034612;28;19931;-38
2023/03/07 06:56:44;;;;;;;;;;;;;;;5.32;82.25;92662.72;5041526;28;19945;-38
2023/03/07 06:59:10;;;;;;;;;;;;;;;5.51;82.10;92676.94;5032263;28;20487;-38
2023/03/07 07:01:35;;;;;;;;;;;;;;;5.50;82.39;92670.00;5032792;28;19933;-38
2023/03/07 07:04:00;;;;;;;;;;;;;;;5.54;82.17;92664.19;5032272;28;19937;-38
2023/03/07 07:06:26;;;;;;;;;;;;;;;5.80;81.24;92659.31;5032679;28;19929;-38
2023/03/07 07:08:55;;;;;;;;;;;;;;;6.00;81.36;92663.28;5032617;28;19931;-38
2023/03/07 07:11:20;;;;;;;;;;;;;;;6.24;81.08;92662.19;5032419;28;20433;-38
2023/03/07 07:13:46;;;;;;;;;;;;;;;6.10;78.56;92664.28;5032447;28;20010;-38
2023/03/07 07:16:14;;;;;;;;;;;;;;;6.46;78.88;92661.53;5032474;28;20423;-38
2023/03/07 07:18:39;;;;;;;;;;;;;;;6.82;79.05;92659.53;5032306;28;19927;-38
2023/03/07 07:21:04;;;;;;;;;;;;;;;7.03;78.06;92667.63;5032121;28;19945;-38
2023/03/07 07:23:30;;;;;;;;;;;;;;;7.12;76.16;92664.38;5031970;28;19937;-37
2023/03/07 07:25:55;;;;;;;;;;;;;;;7.41;76.23;92657.44;5031961;28;20434;-38
2023/03/07 07:28:21;;;;;;;;;;;;;;;7.96;73.62;92660.41;5031849;28;19949;-38
2023/03/07 07:30:47;;;;;;;;;;;;;;;7.99;70.63;92657.28;5031486;28;20459;-38
2023/03/07 07:33:12;;;;;;;;;;;;;;;8.32;70.62;92655.44;5037569;28;19929;-38
2023/03/07 07:35:38;;;;;;;;;;;;;;;8.69;69.73;92656.63;5052285;28;20094;-38
2023/03/07 07:38:03;;;;;;;;;;;;;;;9.07;68.02;92663.44;5051955;28;20400;-38
2023/03/07 07:40:28;;;;;;;;;;;;;;;9.39;66.33;92659.25;5051537;28;19934;-39
2023/03/07 07:42:54;;;;;;;;;;;;;;;9.56;62.06;92659.31;5051590;28;19936;-39
2023/03/07 07:45:20;;;;;;;;;;;;;;;9.78;62.51;92663.94;5050962;28;19982;-37
2023/03/07 07:47:46;;;;;;;;;;;;;;;10.42;60.60;92671.31;5045719;28;20351;-39
2023/03/07 07:50:13;;;;;;;;;;;;;;;10.96;57.96;92667.44;5031520;28;19944;-38
2023/03/07 07:52:38;;;;;;;;;;;;;;;10.95;56.22;92668.00;5031896;28;19962;-38
2023/03/07 07:55:03;;;;;;;;;;;;;;;10.94;58.87;92670.03;5031940;28;20319;-38
2023/03/07 07:57:29;;;;;;;;;;;;;;;10.86;59.89;92672.16;5048995;28;19933;-38
2023/03/07 07:59:54;;;;;;;;;;;;;;;11.33;59.84;92671.03;5051502;28;20023;-39
2023/03/07 08:02:19;;;;;;;;;;;;;;;11.90;58.35;92674.16;5051488;28;20029;-39
2023/03/07 08:04:46;;;;;;;;;;;;;;;12.08;56.14;92674.81;5051486;28;19940;-39
2023/03/07 08:07:12;;;;;;;;;;;;;;;12.29;55.30;92672.25;5051206;28;20025;-38
2023/03/07 08:09:38;;;;;;;;;;;;;;;11.89;54.83;92669.91;5051462;28;19934;-39
2023/03/07 08:12:03;;;;;;;;;;;;;;;11.43;54.83;92669.78;5051065;28;20435;-39
2023/03/07 08:14:29;;;;;;;;;;;;;;;11.31;54.89;92668.13;5051186;28;19929;-39
2023/03/07 08:16:54;;;;;;;;;;;;;;;11.57;56.18;92674.97;5050882;28;19975;-38
2023/03/07 08:19:19;;;;;;;;;;;;;;;11.76;54.30;92677.88;5041150;28;20010;-39
2023/03/07 08:21:45;;;;;;;;;;;;;;;11.58;54.04;92665.38;5031143;28;19940;-38
2023/03/07 08:24:10;;;;;;;;;;;;;;;11.32;56.00;92666.81;5031127;28;19943;-38
2023/03/07 08:26:35;;;;;;;;;;;;;;;11.64;55.77;92674.13;5030923;28;19944;-39
2023/03/07 08:29:00;;;;;;;;;;;;;;;11.46;55.68;92667.22;5030671;28;19931;-38
2023/03/07 08:31:26;;;;;;;;;;;;;;;11.62;55.10;92671.22;5030666;28;19948;-38
2023/03/07 08:33:51;;;;;;;;;;;;;;;11.76;54.79;92673.03;5030627;28;19939;-38
2023/03/07 08:36:17;;;;;;;;;;;;;;;11.82;54.17;92678.31;5030780;28;19947;-38
2023/03/07 08:38:42;;;;;;;;;;;;;;;12.09;53.91;92676.25;5030430;28;19942;-38
2023/03/07 08:41:07;;;;;;;;;;;;;;;12.23;54.88;92671.78;5030498;28;19925;-38
2023/03/07 08:43:35;;;;;;;;;;;;;;;12.06;54.42;92671.88;5030301;28;20064;-38
2023/03/07 08:46:00;;;;;;;;;;;;;;;12.21;51.95;92670.91;5030608;28;20437;-38
2023/03/07 08:48:25;;;;;;;;;;;;;;;11.81;51.62;92672.06;5030534;28;20028;-38
2023/03/07 08:50:51;;;;;;;;;;;;;;;12.19;50.66;92666.66;5030476;28;20062;-38
2023/03/07 08:53:17;;;;;;;;;;;;;;;12.66;51.83;92662.56;5030618;28;19934;-38
2023/03/07 08:55:42;;;;;;;;;;;;;;;12.81;47.89;92664.31;5040889;28;19945;-38
2023/03/07 08:58:08;;;;;;;;;;;;;;;13.38;48.27;92663.59;5030219;28;19939;-38
2023/03/07 09:00:33;;;;;;;;;;;;;;;13.48;45.76;92658.75;5029997;28;19967;-38
2023/03/07 09:03:00;;;;;;;;;;;;;;;13.61;43.40;92663.84;5030070;28;20442;-38
2023/03/07 09:05:25;;;;;;;;;;;;;;;13.63;41.57;92656.38;5030029;28;19950;-38
2023/03/07 09:07:51;;;;;;;;;;;;;;;13.66;40.26;92660.03;5030307;28;19934;-38
2023/03/07 09:10:18;;;;;;;;;;;;;;;13.49;41.37;92651.91;5029868;28;19987;-38
2023/03/07 09:12:43;;;;;;;;;;;;;;;13.67;42.54;92656.66;5029908;28;20056;-38
2023/03/07 09:15:09;;;;;;;;;;;;;;;15.45;39.20;92643.50;5029770;28;20030;-38
2023/03/07 09:17:34;;;;;;;;;;;;;;;16.37;35.80;92649.22;5030045;28;19939;-38
2023/03/07 09:19:59;;;;;;;;;;;;;;;18.32;35.83;92642.09;5029987;28;19939;-39
2023/03/07 09:22:25;;;;;;;;;;;;;;;18.86;34.41;92645.63;5029819;28;20391;-39
2023/03/07 09:24:51;;;;;;;;;;;;;;;18.16;33.39;92648.28;5029588;28;19937;-38
2023/03/07 09:27:16;;;;;;;;;;;;;;;17.65;35.06;92646.88;5029811;28;19934;-38
2023/03/07 09:29:41;;;;;;;;;;;;;;;17.33;35.28;92639.47;5029499;28;19932;-39
2023/03/07 09:32:06;;;;;;;;;;;;;;;16.36;35.46;92638.69;5029115;28;19951;-38
2023/03/07 09:34:32;;;;;;;;;;;;;;;16.89;34.56;92637.66;5046124;28;19938;-39
2023/03/07 09:36:57;;;;;;;;;;;;;;;16.48;35.55;92637.34;5049245;28;19930;-38
2023/03/07 09:39:22;;;;;;;;;;;;;;;16.22;35.31;92637.84;5049580;28;19932;-38
2023/03/07 09:41:52;;;;;;;;;;;;;;;16.29;37.12;92634.06;5030609;28;19944;-38
2023/03/07 09:44:23;;;;;;;;;;;;;;;18.58;32.06;92632.31;5044914;28;19945;-38
2023/03/07 09:47:20;;;;;;;;;;;;;;;19.02;31.01;92631.75;5044376;28;20331;-38
2023/03/07 09:49:46;;;;;;;;;;;;;;;18.01;32.53;92634.91;5016812;28;19944;-38
2023/03/07 09:52:13;;;;;;;;;;;;;;;17.37;32.39;92628.53;5029197;28;20654;-38
2023/03/07 09:54:43;;;;;;;;;;;;;;;17.12;32.59;92626.44;5029346;28;19935;-38
2023/03/07 09:57:12;;;;;;;;;;;;;;;16.59;32.50;92633.84;5044578;28;19972;-38
2023/03/07 09:59:44;;;;;;;;;;;;;;;15.68;33.56;92624.81;5044487;28;20000;-38
2023/03/07 10:02:30;;;;;;;;;;;;;;;14.69;35.70;92620.56;5029308;28;19936;-38
2023/03/07 10:05:01;;;;;;;;;;;;;;;15.08;35.63;92618.94;5017426;28;19933;-38
2023/03/07 10:07:26;;;;;;;;;;;;;;;15.62;36.57;92609.81;5027666;28;19964;-38
2023/03/07 10:09:56;;;;;;;;;;;;;;;15.66;36.46;92608.00;5028787;28;20437;-38
2023/03/07 10:12:28;;;;;;;;;;;;;;;15.31;35.48;92609.22;5044229;28;19965;-38
2023/03/07 10:15:16;;;;;;;;;;;;;;;15.14;36.58;92599.84;5044594;28;19950;-38
2023/03/07 10:17:54;;;;;;;;;;;;;;;15.49;38.19;92596.47;5025890;28;19979;-38
2023/03/07 10:20:28;;;;;;;;;;;;;;;17.24;34.78;92592.91;5029055;28;19938;-38
2023/03/07 10:22:58;;;;;;;;;;;;;;;18.89;31.67;92584.94;5028762;28;20414;-38
2023/03/07 10:25:24;;;;;;;;;;;;;;;18.00;30.41;92585.94;5044222;28;19932;-38
2023/03/07 10:27:50;;;;;;;;;;;;;;;19.97;29.00;92586.63;5029100;28;19935;-38
2023/03/07 10:30:17;;;;;;;;;;;;;;;19.00;30.15;92575.69;5044618;28;19938;-38
2023/03/07 10:32:43;;;;;;;;;;;;;;;18.38;29.15;92580.91;5045678;28;20012;-38
2023/03/07 10:35:14;;;;;;;;;;;;;;;19.98;27.99;92578.94;5048935;28;19934;-38
2023/03/07 10:37:39;;;;;;;;;;;;;;;21.69;26.18;92572.22;5048984;28;20028;-39
2023/03/07 10:40:05;;;;;;;;;;;;;;;22.50;25.50;92561.97;5048635;28;20085;-39
2023/03/07 10:42:32;;;;;;;;;;;;;;;22.94;23.69;92555.09;5048878;28;19930;-39
2023/03/07 10:44:57;;;;;;;;;;;;;;;22.56;22.20;92557.28;5064004;28;20412;-39
2023/03/07 10:47:24;;;;;;;;;;;;;;;21.16;22.86;92565.88;5048678;28;19937;-38
2023/03/07 10:49:51;;;;;;;;;;;;;;;20.93;24.01;92552.97;5048898;28;19931;-38
2023/03/07 10:52:16;;;;;;;;;;;;;;;22.08;22.06;92549.88;5048712;28;19964;-38
2023/03/07 10:54:41;;;;;;;;;;;;;;;22.66;23.94;92547.75;5048561;28;20342;-38
2023/03/07 10:57:08;;;;;;;;;;;;;;;22.09;23.20;92537.25;5049833;28;19941;-39
2023/03/07 10:59:34;;;;;;;;;;;;;;;21.00;26.58;92547.00;5028472;28;19963;-39
2023/03/07 11:02:00;;;;;;;;;;;;;;;19.08;24.94;92550.91;5028567;28;19938;-39
2023/03/07 11:04:29;;;;;;;;;;;;;;;18.33;26.91;92537.34;5028821;28;19929;-38
2023/03/07 11:06:58;;;;;;;;;;;;;;;17.28;30.63;92532.50;5028890;28;19939;-38
2023/03/07 11:09:30;;;;;;;;;;;;;;;17.40;29.96;92527.59;5028830;28;19932;-38
2023/03/07 11:12:18;;;;;;;;;;;;;;;16.83;32.14;92528.59;5028429;28;20479;-38
2023/03/07 11:14:46;;;;;;;;;;;;;;;17.09;31.40;92520.94;5044257;28;19936;-38
2023/03/07 11:17:21;;;;;;;;;;;;;;;16.97;30.31;92525.88;5028846;28;19935;-38
2023/03/07 11:19:47;;;;;;;;;;;;;;;17.05;31.95;92527.03;5028621;28;19932;-38
2023/03/07 11:22:15;;;;;;;;;;;;;;;18.25;28.75;92509.00;5047686;28;19998;-38
2023/03/07 11:24:41;;;;;;;;;;;;;;;20.47;27.38;92504.06;5032514;28;19934;-38
2023/03/07 11:27:15;;;;;;;;;;;;;;;21.73;26.05;92502.88;5047313;28;20047;-39
2023/03/07 11:29:40;;;;;;;;;;;;;;;22.56;23.13;92503.09;5047508;28;19989;-39
2023/03/07 11:32:11;;;;;;;;;;;;;;;22.11;23.11;92497.25;5031587;28;19954;-39
2023/03/07 11:34:36;;;;;;;;;;;;;;;22.04;24.21;92499.13;5065047;28;19936;-39
2023/03/07 11:37:08;;;;;;;;;;;;;;;23.10;25.06;92490.16;5041754;28;19966;-39
2023/03/07 11:39:36;;;;;;;;;;;;;;;21.27;23.95;92489.13;5032161;28;20138;-39
2023/03/07 11:42:22;;;;;;;;;;;;;;;21.85;24.46;92480.16;5047490;28;19935;-38
2023/03/07 11:44:53;;;;;;;;;;;;;;;21.45;24.43;92487.03;5031269;28;19936;-39
2023/03/07 11:47:18;;;;;;;;;;;;;;;21.73;24.86;92474.06;5031480;28;19936;-39
2023/03/07 11:50:05;;;;;;;;;;;;;;;22.31;22.98;92467.75;5031810;28;20054;-38
2023/03/07 11:52:40;;;;;;;;;;;;;;;21.76;23.67;92461.53;5031417;28;20413;-39
2023/03/07 11:55:24;;;;;;;;;;;;;;;20.28;25.37;92473.81;5046714;28;19945;-39
2023/03/07 11:57:57;;;;;;;;;;;;;;;19.42;27.31;92465.81;5011550;28;20363;-38
2023/03/07 12:00:22;;;;;;;;;;;;;;;19.78;26.45;92461.09;5043163;28;19976;-38
2023/03/07 12:02:47;;;;;;;;;;;;;;;19.52;26.94;92460.66;5011422;28;19935;-39
2023/03/07 12:05:32;;;;;;;;;;;;;;;19.08;27.42;92457.88;5011827;28;19933;-39
2023/03/07 12:08:04;;;;;;;;;;;;;;;19.69;27.23;92456.50;5011562;28;19937;-38
2023/03/07 12:10:35;;;;;;;;;;;;;;;20.34;27.14;92466.38;5043136;28;19942;-39
2023/03/07 12:13:04;;;;;;;;;;;;;;;19.61;24.43;92468.06;5011337;28;19941;-38
2023/03/07 12:15:31;;;;;;;;;;;;;;;18.69;26.94;92469.31;5043347;28;19938;-38
2023/03/07 12:18:15;;;;;;;;;;;;;;;18.45;28.51;92462.53;5043453;28;20000;-38
2023/03/07 12:20:40;;;;;;;;;;;;;;;17.91;27.79;92466.78;5011092;28;19938;-38
2023/03/07 12:23:08;;;;;;;;;;;;;;;17.70;29.86;92467.09;5011352;28;20021;-38
2023/03/07 12:25:48;;;;;;;;;;;;;;;18.05;29.20;92464.00;5011119;28;19932;-38
2023/03/07 12:28:13;;;;;;;;;;;;;;;18.02;26.73;92454.78;5028695;28;20410;-38
2023/03/07 12:30:57;;;;;;;;;;;;;;;18.17;27.40;92459.72;5030478;28;19983;-38
2023/03/07 12:33:41;;;;;;;;;;;;;;;18.94;27.39;92438.34;5029039;28;20031;-38
2023/03/07 12:36:08;;;;;;;;;;;;;;;18.37;27.74;92443.25;5050683;28;19965;-38
2023/03/07 12:38:35;;;;;;;;;;;;;;;17.91;27.34;92438.84;5050637;28;19940;-38
2023/03/07 12:41:13;;;;;;;;;;;;;;;17.15;29.30;92437.63;5050953;28;20382;-38
2023/03/07 12:43:43;;;;;;;;;;;;;;;16.88;29.18;92438.25;5066010;28;19932;-38
2023/03/07 12:46:08;;;;;;;;;;;;;;;16.23;29.99;92442.25;5066416;28;19970;-38
2023/03/07 12:48:42;;;;;;;;;;;;;;;16.21;28.76;92438.63;5050632;28;20413;-38
2023/03/07 12:51:07;;;;;;;;;;;;;;;15.49;31.72;92441.41;5065983;28;20023;-38